Time;durP1;ratioP1;P1;durP2;ratioP2;P2;SDS_P1;SDS_P2;PMS_P1;PMS_P2;Temp;Humidity;BMP_temperature;BMP_pressure;BME280_temperature;BME280_humidity;BME280_pressure;Samples;Min_cycle;Max_cycle;Signal;HPM_P1;HPM_P2
2022/05/30 00:00:15;;;;;;;0.20;0.20;;;10.70;99.90;;;;;;5037685;28;20262;-82
2022/05/30 00:02:41;;;;;;;0.00;0.00;;;10.80;99.90;;;;;;5034953;28;20177;-82
2022/05/30 00:05:08;;;;;;;0.13;0.13;;;10.90;99.90;;;;;;5038141;28;20179;-82
2022/05/30 00:07:35;;;;;;;0.10;0.10;;;11.00;99.90;;;;;;5055278;28;20721;-82
2022/05/30 00:10:01;;;;;;;0.20;0.20;;;10.80;99.90;;;;;;5056583;28;20221;-82
2022/05/30 00:12:26;;;;;;;0.10;0.10;;;10.30;99.90;;;;;;5035700;28;20190;-82
2022/05/30 00:14:52;;;;;;;0.10;0.10;;;10.00;99.90;;;;;;5036641;28;20231;-82
2022/05/30 00:17:17;;;;;;;0.10;0.10;;;9.90;99.90;;;;;;5055060;28;20181;-81
2022/05/30 00:19:43;;;;;;;4.60;0.97;;;9.70;99.90;;;;;;5037135;28;20296;-82
2022/05/30 00:22:14;;;;;;;0.70;0.20;;;9.70;99.90;;;;;;5035971;28;20288;-82
2022/05/30 00:24:40;;;;;;;0.30;0.30;;;9.60;99.90;;;;;;5055394;28;20181;-82
2022/05/30 00:27:06;;;;;;;0.10;0.10;;;9.70;99.90;;;;;;5036055;28;20211;-82
2022/05/30 00:29:32;;;;;;;0.17;0.17;;;9.70;99.90;;;;;;5036020;28;20199;-83
2022/05/30 00:31:58;;;;;;;0.10;0.10;;;9.80;99.90;;;;;;5056364;28;20600;-82
2022/05/30 00:34:24;;;;;;;0.13;0.13;;;9.60;99.90;;;;;;5053526;28;20267;-82
2022/05/30 00:36:50;;;;;;;0.10;0.10;;;9.50;99.90;;;;;;5036509;28;20185;-83
2022/05/30 00:39:15;;;;;;;0.30;0.30;;;9.50;99.90;;;;;;5053842;28;21108;-82
2022/05/30 00:41:41;;;;;;;0.10;0.10;;;9.40;99.90;;;;;;5034540;28;21044;-82
2022/05/30 00:44:07;;;;;;;0.10;0.10;;;9.50;99.90;;;;;;5035553;28;20204;-83
2022/05/30 00:46:32;;;;;;;0.10;0.10;;;9.50;99.90;;;;;;5036489;28;20221;-83
2022/05/30 00:49:07;;;;;;;0.10;0.10;;;9.50;99.90;;;;;;5035516;28;20205;-82
2022/05/30 00:51:47;;;;;;;0.20;0.20;;;9.70;99.90;;;;;;5054086;28;20183;-82
2022/05/30 00:54:17;;;;;;;0.10;0.10;;;9.80;99.90;;;;;;5034831;28;20192;-82
2022/05/30 00:56:45;;;;;;;0.10;0.10;;;9.80;99.90;;;;;;5036083;28;20275;-82
2022/05/30 00:59:11;;;;;;;0.20;0.20;;;9.60;99.90;;;;;;5052596;28;20212;-82
2022/05/30 01:01:36;;;;;;;0.20;0.10;;;9.70;99.90;;;;;;5038846;28;20254;-82
2022/05/30 01:06:53;;;;;;;0.20;0.20;;;9.80;99.90;;;;;;5059195;28;20272;-82
2022/05/30 01:09:23;;;;;;;0.10;0.10;;;9.80;99.90;;;;;;5056291;28;20280;-82
2022/05/30 01:11:57;;;;;;;0.10;0.10;;;9.60;99.90;;;;;;5058910;28;20177;-82
2022/05/30 01:14:27;;;;;;;0.10;0.10;;;9.50;99.90;;;;;;5037534;28;20183;-82
2022/05/30 01:16:54;;;;;;;0.47;0.40;;;9.50;99.90;;;;;;5058840;28;20693;-83
2022/05/30 01:19:33;;;;;;;0.10;0.10;;;9.50;99.90;;;;;;5040450;28;20303;-82
2022/05/30 01:22:10;;;;;;;0.77;0.30;;;9.40;99.90;;;;;;5059136;28;20214;-82
2022/05/30 01:24:49;;;;;;;0.10;0.10;;;9.40;99.90;;;;;;5040957;28;20207;-83
2022/05/30 01:27:26;;;;;;;0.13;0.10;;;9.30;99.90;;;;;;5056166;28;20709;-82
2022/05/30 01:30:00;;;;;;;0.20;0.20;;;9.20;99.90;;;;;;5073323;28;20200;-82
2022/05/30 01:32:26;;;;;;;0.10;0.10;;;9.10;99.90;;;;;;5056893;28;20190;-82
2022/05/30 01:34:52;;;;;;;0.33;0.33;;;9.20;99.90;;;;;;5056914;28;20259;-82
2022/05/30 01:37:17;;;;;;;0.20;0.20;;;9.20;99.90;;;;;;5037486;28;20240;-83
2022/05/30 01:39:43;;;;;;;0.10;0.10;;;9.20;99.90;;;;;;5056407;28;20212;-83
2022/05/30 01:42:08;;;;;;;0.13;0.13;;;9.10;99.90;;;;;;5057190;28;20535;-82
2022/05/30 01:44:34;;;;;;;0.20;0.20;;;9.10;99.90;;;;;;5040248;28;20725;-82
2022/05/30 01:46:59;;;;;;;0.10;0.10;;;9.20;99.90;;;;;;5056635;28;20214;-82
2022/05/30 01:49:26;;;;;;;0.40;0.10;;;9.20;99.90;;;;;;5057100;28;20216;-82
2022/05/30 01:51:54;;;;;;;0.10;0.10;;;9.30;99.90;;;;;;5070241;28;20611;-83
2022/05/30 01:54:20;;;;;;;0.20;0.20;;;9.40;99.90;;;;;;5038352;28;20217;-83
2022/05/30 01:56:46;;;;;;;0.27;0.27;;;9.50;99.90;;;;;;5038093;28;20654;-83
2022/05/30 01:59:12;;;;;;;0.20;0.20;;;9.50;99.90;;;;;;5040434;28;20238;-82
2022/05/30 02:01:39;;;;;;;0.30;0.30;;;9.70;99.90;;;;;;5057495;28;20212;-83
2022/05/30 02:04:05;;;;;;;0.10;0.10;;;9.80;99.90;;;;;;5055576;28;20207;-82
2022/05/30 02:06:32;;;;;;;0.10;0.10;;;9.90;99.90;;;;;;5037127;28;20220;-82
2022/05/30 02:08:58;;;;;;;0.10;0.10;;;10.00;99.90;;;;;;5037827;28;20216;-82
2022/05/30 02:11:24;;;;;;;0.30;0.30;;;10.00;99.90;;;;;;5058414;28;20655;-82
2022/05/30 02:13:50;;;;;;;0.10;0.10;;;10.10;99.90;;;;;;5039342;28;20179;-82
2022/05/30 02:19:02;;;;;;;0.10;0.10;;;10.10;99.90;;;;;;5055157;28;20214;-82
2022/05/30 02:21:31;;;;;;;0.23;0.23;;;10.10;99.90;;;;;;5035780;28;20615;-82
2022/05/30 02:23:57;;;;;;;0.10;0.10;;;10.10;99.90;;;;;;5055420;28;20176;-82
2022/05/30 02:26:23;;;;;;;0.10;0.10;;;10.10;99.90;;;;;;5056987;28;20689;-82
2022/05/30 02:28:49;;;;;;;0.20;0.20;;;10.10;99.90;;;;;;5055538;28;20319;-82
2022/05/30 02:31:15;;;;;;;0.30;0.30;;;10.10;99.90;;;;;;5039190;28;20189;-83
2022/05/30 02:36:39;;;;;;;0.20;0.20;;;10.10;99.90;;;;;;5058311;28;21043;-83
2022/05/30 02:39:09;;;;;;;0.40;0.40;;;9.90;99.90;;;;;;5053753;28;20211;-82
2022/05/30 02:41:36;;;;;;;0.10;0.10;;;9.70;99.90;;;;;;5038014;28;20675;-83
2022/05/30 02:44:02;;;;;;;0.57;0.40;;;9.70;99.90;;;;;;5038483;28;20663;-82
2022/05/30 02:46:28;;;;;;;0.30;0.30;;;9.70;99.90;;;;;;5038027;28;20212;-83
2022/05/30 02:48:53;;;;;;;0.50;0.50;;;9.70;99.90;;;;;;5057022;28;20207;-82
2022/05/30 02:51:19;;;;;;;0.20;0.20;;;9.80;99.90;;;;;;5037552;28;20262;-82
2022/05/30 02:53:44;;;;;;;0.40;0.20;;;9.80;99.90;;;;;;5036825;28;20876;-83
2022/05/30 02:56:14;;;;;;;0.20;0.20;;;9.80;99.90;;;;;;5054074;28;20203;-82
2022/05/30 02:58:40;;;;;;;0.30;0.30;;;9.60;99.90;;;;;;5056132;28;20255;-83
2022/05/30 03:01:05;;;;;;;0.20;0.20;;;9.50;99.90;;;;;;5055125;28;20214;-82
2022/05/30 03:03:32;;;;;;;0.40;0.40;;;9.30;99.90;;;;;;5036991;28;20295;-82
2022/05/30 03:05:57;;;;;;;0.17;0.17;;;9.20;99.90;;;;;;5055216;28;20232;-83
2022/05/30 03:08:23;;;;;;;0.27;0.27;;;9.10;99.90;;;;;;5056440;28;20217;-83
2022/05/30 03:10:48;;;;;;;0.27;0.27;;;9.00;99.90;;;;;;5039177;28;20185;-82
2022/05/30 03:13:14;;;;;;;0.20;0.20;;;9.00;99.90;;;;;;5036498;28;20189;-82
2022/05/30 03:15:40;;;;;;;0.23;0.23;;;9.00;99.90;;;;;;5053266;28;20268;-82
2022/05/30 03:18:06;;;;;;;0.73;0.30;;;8.90;99.90;;;;;;5056905;28;20230;-82
2022/05/30 03:20:33;;;;;;;0.43;0.43;;;8.90;99.90;;;;;;5054604;28;20181;-82
2022/05/30 03:22:58;;;;;;;0.20;0.20;;;8.80;99.90;;;;;;5053905;28;20192;-83
2022/05/30 03:25:24;;;;;;;0.43;0.37;;;8.90;99.90;;;;;;5036214;28;20187;-82
2022/05/30 03:27:54;;;;;;;0.20;0.20;;;9.00;99.90;;;;;;5037391;28;20184;-82
2022/05/30 03:30:20;;;;;;;0.57;0.57;;;9.30;99.90;;;;;;5054902;28;20707;-82
2022/05/30 03:32:46;;;;;;;0.30;0.30;;;9.50;99.90;;;;;;5037873;28;20192;-82
2022/05/30 03:35:12;;;;;;;0.23;0.23;;;9.70;99.90;;;;;;5056815;28;20245;-83
2022/05/30 03:37:39;;;;;;;0.20;0.20;;;9.90;99.90;;;;;;5054405;28;20658;-83
2022/05/30 03:40:07;;;;;;;0.17;0.17;;;10.10;99.90;;;;;;5054821;28;20219;-82
2022/05/30 03:42:33;;;;;;;0.30;0.30;;;9.90;99.90;;;;;;5054137;28;20214;-82
2022/05/30 03:44:58;;;;;;;0.30;0.30;;;9.70;99.90;;;;;;5054018;28;20196;-82
2022/05/30 03:47:24;;;;;;;0.10;0.10;;;9.50;99.90;;;;;;5036129;28;20291;-82
2022/05/30 03:49:50;;;;;;;0.77;0.73;;;9.40;99.90;;;;;;5028604;28;20217;-82
2022/05/30 03:52:15;;;;;;;0.23;0.23;;;9.30;99.90;;;;;;5033800;28;20192;-82
2022/05/30 03:54:41;;;;;;;0.50;0.50;;;9.20;99.90;;;;;;5054859;28;20211;-82
2022/05/30 03:57:07;;;;;;;0.50;0.50;;;9.10;99.90;;;;;;5036716;28;20274;-82
2022/05/30 03:59:32;;;;;;;0.57;0.20;;;9.10;99.90;;;;;;5034700;28;20206;-82
2022/05/30 04:01:58;;;;;;;2.50;0.20;;;9.00;99.90;;;;;;5038629;28;20845;-82
2022/05/30 04:04:24;;;;;;;0.10;0.10;;;9.00;99.90;;;;;;5038356;28;20215;-82
2022/05/30 04:06:49;;;;;;;0.10;0.10;;;9.00;99.90;;;;;;5038370;28;20243;-82
2022/05/30 04:09:15;;;;;;;0.27;0.27;;;9.30;99.90;;;;;;5033221;28;20231;-82
2022/05/30 04:11:40;;;;;;;0.10;0.10;;;9.30;99.90;;;;;;5038438;28;20196;-82
2022/05/30 04:14:06;;;;;;;0.10;0.10;;;9.60;99.90;;;;;;5055936;28;20196;-82
2022/05/30 04:16:31;;;;;;;0.10;0.10;;;9.90;99.90;;;;;;5035149;28;20217;-82
2022/05/30 04:18:57;;;;;;;0.30;0.30;;;10.10;99.90;;;;;;5034942;28;20222;-82
2022/05/30 04:21:23;;;;;;;0.20;0.20;;;10.40;99.90;;;;;;5035004;28;20278;-82
2022/05/30 04:23:48;;;;;;;0.10;0.10;;;10.40;99.90;;;;;;5052611;28;20193;-82
2022/05/30 04:26:16;;;;;;;0.43;0.33;;;10.70;99.90;;;;;;5055265;28;20201;-82
2022/05/30 04:28:42;;;;;;;0.30;0.30;;;10.80;99.90;;;;;;5054909;28;20203;-82
2022/05/30 04:31:13;;;;;;;0.20;0.20;;;11.00;99.90;;;;;;5038106;28;20181;-82
2022/05/30 04:33:40;;;;;;;0.60;0.60;;;11.10;99.90;;;;;;5050423;28;20189;-82
2022/05/30 04:36:14;;;;;;;0.23;0.23;;;11.20;99.90;;;;;;5055093;28;20871;-82
2022/05/30 04:38:39;;;;;;;0.23;0.20;;;11.10;99.90;;;;;;5059021;28;20755;-81
2022/05/30 04:41:05;;;;;;;0.30;0.30;;;11.10;99.90;;;;;;5038771;28;20185;-82
2022/05/30 04:43:31;;;;;;;0.40;0.40;;;11.10;99.90;;;;;;5038665;28;20200;-82
2022/05/30 04:46:06;;;;;;;0.30;0.30;;;11.10;99.90;;;;;;5039138;28;20205;-82
2022/05/30 04:48:31;;;;;;;0.30;0.30;;;11.10;99.90;;;;;;5040412;28;20211;-82
2022/05/30 04:50:57;;;;;;;0.20;0.20;;;11.20;99.90;;;;;;5039403;28;20670;-82
2022/05/30 04:53:23;;;;;;;0.50;0.50;;;11.20;99.90;;;;;;5036756;28;20185;-82
2022/05/30 04:55:48;;;;;;;1.27;0.63;;;11.30;99.90;;;;;;5056084;28;20242;-82
2022/05/30 04:58:14;;;;;;;0.40;0.30;;;11.30;99.90;;;;;;5038424;28;20201;-82
2022/05/30 05:00:39;;;;;;;0.30;0.27;;;11.30;99.90;;;;;;5038339;28;20195;-83
2022/05/30 05:03:05;;;;;;;0.57;0.33;;;11.60;99.90;;;;;;5037760;28;20200;-82
2022/05/30 05:05:30;;;;;;;0.40;0.40;;;11.70;99.90;;;;;;5055068;28;20201;-82
2022/05/30 05:08:20;;;;;;;0.20;0.20;;;11.40;99.90;;;;;;5038534;28;20185;-83
2022/05/30 05:11:05;;;;;;;0.60;0.30;;;11.40;99.90;;;;;;5014170;28;20185;-82
2022/05/30 05:13:30;;;;;;;0.50;0.50;;;11.30;99.90;;;;;;5051394;28;20173;-80
2022/05/30 05:15:57;;;;;;;0.20;0.20;;;11.20;99.90;;;;;;5070289;28;20183;-80
2022/05/30 05:18:22;;;;;;;0.30;0.30;;;11.40;99.90;;;;;;5053122;28;20214;-80
2022/05/30 05:20:48;;;;;;;1.23;0.70;;;11.50;99.90;;;;;;5055143;28;20267;-79
2022/05/30 05:23:14;;;;;;;0.30;0.30;;;11.40;99.90;;;;;;5053635;28;20181;-81
2022/05/30 05:25:40;;;;;;;0.20;0.20;;;11.30;99.90;;;;;;5060435;28;20762;-80
2022/05/30 05:28:07;;;;;;;1.03;1.03;;;11.50;99.90;;;;;;5055535;28;20178;-80
2022/05/30 05:30:33;;;;;;;0.10;0.10;;;11.70;99.90;;;;;;5031179;28;20250;-80
2022/05/30 05:32:58;;;;;;;0.20;0.20;;;12.10;99.90;;;;;;5035396;28;20235;-80
2022/05/30 05:35:24;;;;;;;1.03;0.27;;;12.40;99.90;;;;;;5053557;28;20209;-80
2022/05/30 05:37:51;;;;;;;0.20;0.20;;;12.70;99.90;;;;;;5037356;28;20236;-80
2022/05/30 05:40:17;;;;;;;0.20;0.20;;;13.00;99.90;;;;;;5071131;28;20174;-81
2022/05/30 05:42:43;;;;;;;0.23;0.23;;;13.30;99.90;;;;;;5056240;28;20251;-80
2022/05/30 05:45:09;;;;;;;0.70;0.70;;;13.60;99.90;;;;;;5035249;28;20181;-81
2022/05/30 05:47:35;;;;;;;0.10;0.10;;;13.90;99.90;;;;;;5036970;28;20513;-80
2022/05/30 05:50:01;;;;;;;0.10;0.10;;;14.10;99.90;;;;;;5041504;28;20209;-80
2022/05/30 05:52:28;;;;;;;0.40;0.40;;;14.20;99.90;;;;;;5037401;28;20596;-80
2022/05/30 05:54:57;;;;;;;0.30;0.23;;;14.40;99.90;;;;;;5058690;28;20805;-80
2022/05/30 05:57:27;;;;;;;0.23;0.23;;;14.40;99.90;;;;;;5057760;28;20215;-80
2022/05/30 05:59:53;;;;;;;8.13;1.07;;;14.40;99.90;;;;;;5056288;28;20222;-81
2022/05/30 06:02:18;;;;;;;0.20;0.20;;;14.40;99.90;;;;;;5036043;28;20557;-81
2022/05/30 06:04:45;;;;;;;0.20;0.20;;;14.60;99.90;;;;;;5053339;28;20564;-80
2022/05/30 06:07:11;;;;;;;0.20;0.20;;;14.70;99.90;;;;;;5036017;28;20222;-80
2022/05/30 06:09:37;;;;;;;0.40;0.37;;;14.70;99.90;;;;;;5054642;28;20661;-81
2022/05/30 06:12:03;;;;;;;0.87;0.40;;;14.80;99.90;;;;;;5036271;28;20174;-81
2022/05/30 06:14:29;;;;;;;0.20;0.20;;;14.70;99.90;;;;;;5055108;28;20670;-82
2022/05/30 06:16:55;;;;;;;0.10;0.10;;;14.80;99.90;;;;;;5039399;28;20257;-82
2022/05/30 06:19:20;;;;;;;0.27;0.27;;;14.90;99.90;;;;;;5059206;28;20223;-82
2022/05/30 06:21:46;;;;;;;0.13;0.13;;;15.10;99.90;;;;;;5039593;28;20194;-82
2022/05/30 06:24:12;;;;;;;0.33;0.20;;;15.20;99.90;;;;;;5034948;28;20260;-80
2022/05/30 06:26:38;;;;;;;0.30;0.10;;;14.60;99.90;;;;;;5050453;28;20213;-81
2022/05/30 06:29:04;;;;;;;0.20;0.20;;;14.60;99.90;;;;;;5036761;28;20204;-81
2022/05/30 06:31:31;;;;;;;0.20;0.20;;;14.50;99.90;;;;;;5053594;28;20186;-80
2022/05/30 06:34:01;;;;;;;0.20;0.20;;;14.20;99.90;;;;;;5051369;28;20183;-80
2022/05/30 06:36:27;;;;;;;0.33;0.30;;;14.20;99.90;;;;;;5053932;28;20174;-81
2022/05/30 06:38:53;;;;;;;0.63;0.23;;;14.10;99.90;;;;;;5065157;28;20224;-80
2022/05/30 06:41:19;;;;;;;0.23;0.20;;;14.20;99.90;;;;;;5052830;28;20211;-80
2022/05/30 06:43:45;;;;;;;0.20;0.20;;;14.70;99.90;;;;;;5053874;28;20206;-80
2022/05/30 06:46:14;;;;;;;0.70;0.47;;;14.20;99.90;;;;;;5037008;28;20216;-80
2022/05/30 06:48:40;;;;;;;0.10;0.10;;;13.90;99.90;;;;;;5034632;28;20208;-81
2022/05/30 06:51:08;;;;;;;0.20;0.20;;;14.10;99.90;;;;;;5035073;28;20827;-81
2022/05/30 06:53:33;;;;;;;0.20;0.20;;;14.60;99.90;;;;;;5048613;28;20184;-80
2022/05/30 06:56:00;;;;;;;0.10;0.10;;;15.10;99.90;;;;;;5033506;28;20890;-80
2022/05/30 06:58:27;;;;;;;0.10;0.10;;;14.60;99.90;;;;;;5052607;28;20208;-82
2022/05/30 07:00:58;;;;;;;0.10;0.10;;;14.80;99.90;;;;;;5064542;28;20222;-82
2022/05/30 07:03:24;;;;;;;0.67;0.53;;;15.10;99.90;;;;;;5044952;28;20266;-81
2022/05/30 07:05:49;;;;;;;0.53;0.20;;;14.90;99.90;;;;;;5043604;28;20214;-82
2022/05/30 07:08:15;;;;;;;0.20;0.20;;;14.80;99.90;;;;;;5050731;28;20200;-81
2022/05/30 07:10:41;;;;;;;1.40;0.20;;;14.40;99.90;;;;;;5036239;28;20184;-81
2022/05/30 07:13:07;;;;;;;0.10;0.10;;;14.80;99.90;;;;;;5055860;28;21238;-81
2022/05/30 07:15:36;;;;;;;0.53;0.50;;;15.40;99.90;;;;;;5032242;28;20187;-81
2022/05/30 07:18:12;;;;;;;0.20;0.20;;;15.50;99.90;;;;;;5029046;28;20217;-82
2022/05/30 07:20:38;;;;;;;0.30;0.20;;;15.50;99.90;;;;;;5034757;28;20179;-82
2022/05/30 07:23:04;;;;;;;0.20;0.10;;;14.90;99.90;;;;;;5058529;28;20207;-82
2022/05/30 07:25:30;;;;;;;0.20;0.20;;;15.40;99.90;;;;;;5058811;28;20199;-82
2022/05/30 07:27:55;;;;;;;0.30;0.30;;;15.90;99.90;;;;;;5040529;28;20189;-82
2022/05/30 07:30:21;;;;;;;0.33;0.20;;;16.40;99.90;;;;;;5056780;28;20184;-82
2022/05/30 07:32:46;;;;;;;0.20;0.20;;;15.70;99.90;;;;;;5059065;28;20190;-82
2022/05/30 07:35:12;;;;;;;0.20;0.20;;;16.40;99.90;;;;;;5037657;28;20195;-82
2022/05/30 07:37:37;;;;;;;0.20;0.20;;;16.10;99.90;;;;;;5039039;28;20191;-82
2022/05/30 07:40:05;;;;;;;0.30;0.30;;;15.90;99.90;;;;;;5057254;28;20224;-82
2022/05/30 07:42:30;;;;;;;0.30;0.30;;;15.90;99.90;;;;;;5056165;28;20231;-82
2022/05/30 07:44:56;;;;;;;0.20;0.20;;;16.40;99.90;;;;;;5037675;28;20185;-82
2022/05/30 07:47:22;;;;;;;0.10;0.10;;;16.00;99.90;;;;;;5038820;28;20299;-82
2022/05/30 07:49:47;;;;;;;0.20;0.20;;;16.40;99.90;;;;;;5057745;28;20340;-82
2022/05/30 07:52:14;;;;;;;3.50;0.33;;;16.90;99.90;;;;;;5039803;28;20184;-82
2022/05/30 07:54:39;;;;;;;0.20;0.20;;;16.00;99.90;;;;;;5040084;28;20183;-82
2022/05/30 07:57:06;;;;;;;0.43;0.33;;;16.10;99.90;;;;;;5054643;28;20576;-81
2022/05/30 07:59:32;;;;;;;0.20;0.20;;;15.00;99.90;;;;;;5038097;28;20219;-82
2022/05/30 08:01:59;;;;;;;0.10;0.10;;;14.80;99.90;;;;;;5039593;28;20191;-82
2022/05/30 08:04:24;;;;;;;0.20;0.20;;;14.50;99.90;;;;;;5056474;28;20186;-82
2022/05/30 08:06:51;;;;;;;0.10;0.10;;;15.10;99.90;;;;;;5039777;28;20579;-82
2022/05/30 08:09:17;;;;;;;0.40;0.40;;;15.10;99.90;;;;;;5035800;28;20249;-82
2022/05/30 08:11:43;;;;;;;0.30;0.30;;;14.60;99.90;;;;;;5037409;28;20555;-82
2022/05/30 08:14:08;;;;;;;0.10;0.10;;;14.90;99.90;;;;;;5039169;28;20188;-82
2022/05/30 08:16:37;;;;;;;0.10;0.10;;;14.50;99.90;;;;;;5038465;28;20248;-82
2022/05/30 08:19:04;;;;;;;0.20;0.20;;;14.90;99.90;;;;;;5037346;28;20230;-82
2022/05/30 08:21:30;;;;;;;0.20;0.20;;;15.00;99.90;;;;;;5037076;28;20214;-82
2022/05/30 08:23:55;;;;;;;0.20;0.20;;;15.00;99.90;;;;;;5039186;28;20977;-83
2022/05/30 08:26:21;;;;;;;0.23;0.23;;;14.40;99.90;;;;;;5035327;28;20211;-81
2022/05/30 08:28:46;;;;;;;0.20;0.20;;;13.80;99.90;;;;;;5038921;28;20233;-82
2022/05/30 08:31:12;;;;;;;0.10;0.10;;;13.70;99.90;;;;;;5054276;28;20224;-82
2022/05/30 08:33:37;;;;;;;0.10;0.10;;;13.80;99.90;;;;;;5037712;28;20619;-82
2022/05/30 08:36:07;;;;;;;0.10;0.10;;;14.20;99.90;;;;;;5033710;28;20196;-82
2022/05/30 08:38:37;;;;;;;0.10;0.10;;;14.30;99.90;;;;;;5056559;28;20207;-82
2022/05/30 08:43:50;;;;;;;0.20;0.20;;;14.00;99.90;;;;;;5058757;28;20965;-82
2022/05/30 08:46:31;;;;;;;0.23;0.23;;;13.70;99.90;;;;;;5039324;28;20203;-82
2022/05/30 08:49:02;;;;;;;0.20;0.20;;;13.80;99.90;;;;;;5038585;28;20247;-82
2022/05/30 08:51:46;;;;;;;1.30;0.30;;;13.80;99.90;;;;;;5035005;28;20176;-80
2022/05/30 08:54:33;;;;;;;0.20;0.20;;;13.70;99.90;;;;;;5035883;28;20202;-80
2022/05/30 08:57:03;;;;;;;0.30;0.30;;;13.40;99.90;;;;;;5051466;28;20192;-81
2022/05/30 08:59:47;;;;;;;0.10;0.10;;;13.80;99.90;;;;;;5064182;28;21234;-79
2022/05/30 09:02:38;;;;;;;2.17;0.30;;;14.00;99.90;;;;;;5042852;28;20175;-81
2022/05/30 09:05:13;;;;;;;0.20;0.20;;;14.30;99.90;;;;;;5042084;28;22047;-80
2022/05/30 09:07:43;;;;;;;0.10;0.10;;;14.50;99.90;;;;;;5050191;28;20330;-80
2022/05/30 09:10:24;;;;;;;0.20;0.20;;;15.00;99.90;;;;;;5052830;28;20235;-81
2022/05/30 09:12:56;;;;;;;0.10;0.10;;;15.40;99.90;;;;;;5035912;28;20183;-80
2022/05/30 09:15:46;;;;;;;0.23;0.23;;;15.80;99.90;;;;;;5051684;28;20192;-79
2022/05/30 09:18:17;;;;;;;0.10;0.10;;;16.10;99.90;;;;;;5052297;28;20199;-81
2022/05/30 09:20:43;;;;;;;0.10;0.10;;;16.50;99.90;;;;;;5033671;28;20178;-81
2022/05/30 09:23:12;;;;;;;0.20;0.20;;;16.70;99.90;;;;;;5034114;28;20594;-81
2022/05/30 09:25:57;;;;;;;0.10;0.10;;;17.00;99.90;;;;;;5037536;28;20175;-81
2022/05/30 09:28:30;;;;;;;0.10;0.10;;;16.80;99.90;;;;;;5036359;28;20207;-81
2022/05/30 09:31:02;;;;;;;0.30;0.30;;;17.10;99.90;;;;;;5054561;28;20191;-81
2022/05/30 09:33:40;;;;;;;0.30;0.30;;;17.10;99.90;;;;;;5057730;28;20265;-81
2022/05/30 09:36:18;;;;;;;0.10;0.10;;;17.50;99.90;;;;;;5038198;28;20192;-81
2022/05/30 09:38:49;;;;;;;0.47;0.47;;;18.10;99.90;;;;;;5072580;28;20223;-81
2022/05/30 09:41:20;;;;;;;0.20;0.20;;;18.70;99.90;;;;;;5057269;28;20207;-81
2022/05/30 09:44:01;;;;;;;0.20;0.20;;;18.70;99.90;;;;;;5058321;28;20207;-81
2022/05/30 09:46:50;;;;;;;0.27;0.27;;;19.00;99.90;;;;;;5036040;28;20241;-81
2022/05/30 09:49:21;;;;;;;0.20;0.20;;;18.80;99.90;;;;;;5029227;28;20640;-81
2022/05/30 09:51:53;;;;;;;0.30;0.30;;;18.80;99.90;;;;;;5053268;28;20212;-81
2022/05/30 09:54:25;;;;;;;0.10;0.10;;;19.30;99.90;;;;;;5038789;28;20192;-81
2022/05/30 09:57:06;;;;;;;0.13;0.13;;;19.60;99.90;;;;;;5036118;28;20200;-81
2022/05/30 09:59:35;;;;;;;0.47;0.47;;;19.60;99.90;;;;;;5037945;28;20718;-81
2022/05/30 10:02:03;;;;;;;0.30;0.30;;;19.40;99.90;;;;;;5037135;28;20205;-80
2022/05/30 10:04:41;;;;;;;0.10;0.10;;;18.50;99.90;;;;;;5053665;28;20177;-81
2022/05/30 10:07:13;;;;;;;0.10;0.10;;;18.60;99.90;;;;;;5037790;28;20200;-82
2022/05/30 10:10:01;;;;;;;0.17;0.17;;;18.70;99.90;;;;;;5036707;28;20240;-82
2022/05/30 10:12:53;;;;;;;0.10;0.10;;;18.80;99.90;;;;;;5040339;28;20205;-82
2022/05/30 10:15:34;;;;;;;0.10;0.10;;;18.80;99.90;;;;;;5043103;28;20727;-84
2022/05/30 10:18:18;;;;;;;0.20;0.20;;;18.70;99.90;;;;;;5067746;28;20231;-83
2022/05/30 10:21:25;;;;;;;0.20;0.20;;;18.60;99.90;;;;;;5040302;28;20185;-82
2022/05/30 10:29:55;;;;;;;0.20;0.20;;;18.30;99.90;;;;;;5055485;28;20211;-83
2022/05/30 10:32:40;;;;;;;0.10;0.10;;;18.10;99.90;;;;;;5038972;28;20335;-82
2022/05/30 10:35:28;;;;;;;0.70;0.37;;;17.80;99.90;;;;;;5036671;28;20208;-83
2022/05/30 10:38:16;;;;;;;0.13;0.13;;;17.80;99.90;;;;;;5037354;28;20231;-82
2022/05/30 10:41:01;;;;;;;0.20;0.20;;;17.20;99.90;;;;;;5057473;28;20180;-82
2022/05/30 10:43:55;;;;;;;0.23;0.23;;;17.00;99.90;;;;;;5054554;28;20539;-82
2022/05/30 10:47:02;;;;;;;0.20;0.20;;;15.80;99.90;;;;;;5056138;28;20204;-82
2022/05/30 10:49:43;;;;;;;0.30;0.30;;;11.50;99.90;;;;;;5034966;28;20199;-81
2022/05/30 10:52:25;;;;;;;0.40;0.17;;;10.50;99.90;;;;;;5038791;28;20187;-81
2022/05/30 10:54:53;;;;;;;0.20;0.20;;;10.50;99.90;;;;;;5054357;28;20205;-82
2022/05/30 10:57:40;;;;;;;0.23;0.23;;;11.10;99.90;;;;;;5053105;28;20659;-82
2022/05/30 11:00:20;;;;;;;0.10;0.10;;;11.10;99.90;;;;;;5038138;28;20589;-81
2022/05/30 11:03:01;;;;;;;0.20;0.20;;;11.30;99.90;;;;;;5058935;28;20192;-81
2022/05/30 11:05:51;;;;;;;0.33;0.33;;;11.30;99.90;;;;;;5055949;28;20286;-82
2022/05/30 11:09:05;;;;;;;0.27;0.27;;;11.60;99.90;;;;;;5056522;28;20230;-82
2022/05/30 11:11:52;;;;;;;0.40;0.40;;;12.30;99.90;;;;;;5025489;28;20222;-82
2022/05/30 11:14:48;;;;;;;0.30;0.30;;;13.10;99.90;;;;;;5056929;28;20746;-81
2022/05/30 11:17:43;;;;;;;0.23;0.23;;;13.20;99.90;;;;;;5034601;28;20174;-80
2022/05/30 11:20:09;;;;;;;0.17;0.17;;;13.40;99.90;;;;;;5031850;28;20244;-82
2022/05/30 11:22:41;;;;;;;0.43;0.43;;;13.60;99.90;;;;;;5055533;28;20176;-80
2022/05/30 11:25:12;;;;;;;0.13;0.13;;;13.60;99.90;;;;;;5053015;28;20205;-80
2022/05/30 11:28:11;;;;;;;0.30;0.30;;;13.90;99.90;;;;;;5036960;28;20202;-81
2022/05/30 11:31:09;;;;;;;0.20;0.20;;;14.50;99.90;;;;;;5028163;28;20211;-80
2022/05/30 11:33:56;;;;;;;0.70;0.60;;;14.60;99.90;;;;;;5028401;28;20199;-80
2022/05/30 11:36:46;;;;;;;0.20;0.20;;;14.80;99.90;;;;;;5036519;28;20210;-80
2022/05/30 11:39:39;;;;;;;0.20;0.20;;;15.10;99.90;;;;;;5033668;28;20220;-80
2022/05/30 11:42:04;;;;;;;0.10;0.10;;;15.30;99.90;;;;;;5052394;28;20195;-80
2022/05/30 11:44:53;;;;;;;0.20;0.20;;;15.80;99.90;;;;;;5048706;28;20189;-80
2022/05/30 11:47:31;;;;;;;0.13;0.13;;;16.10;99.90;;;;;;5049491;28;20224;-80
2022/05/30 11:50:21;;;;;;;0.30;0.30;;;16.40;99.90;;;;;;5053905;28;20200;-80
2022/05/30 11:53:16;;;;;;;0.17;0.17;;;16.80;99.90;;;;;;5033394;28;20255;-80
2022/05/30 11:55:54;;;;;;;0.17;0.17;;;16.90;99.90;;;;;;5050519;28;20264;-80
2022/05/30 11:58:57;;;;;;;0.20;0.20;;;17.50;99.90;;;;;;5050476;28;20223;-80
2022/05/30 12:01:25;;;;;;;0.30;0.30;;;17.60;99.90;;;;;;5033461;28;20220;-80
2022/05/30 12:04:11;;;;;;;0.10;0.10;;;17.80;99.90;;;;;;5050248;28;20270;-82
2022/05/30 12:07:03;;;;;;;0.23;0.23;;;17.50;99.90;;;;;;5056610;28;20202;-81
2022/05/30 12:09:35;;;;;;;0.57;0.27;;;17.50;99.90;;;;;;5038877;28;20219;-82
2022/05/30 12:12:28;;;;;;;0.10;0.10;;;17.80;99.90;;;;;;5055301;28;20189;-82
2022/05/30 12:15:08;;;;;;;0.20;0.20;;;18.20;99.90;;;;;;5053525;28;20186;-82
2022/05/30 12:23:48;;;;;;;0.30;0.30;;;18.30;99.90;;;;;;5037662;28;20683;-82
2022/05/30 12:23:59;;;;;;;0.30;0.30;;;18.70;99.90;;;;;;5055514;28;20273;-82
2022/05/30 12:26:54;;;;;;;0.23;0.20;;;19.40;99.90;;;;;;5053223;28;20201;-82
2022/05/30 12:29:37;;;;;;;0.77;0.17;;;20.10;99.90;;;;;;5054663;28;20200;-83
2022/05/30 12:32:12;;;;;;;0.30;0.20;;;20.50;99.90;;;;;;5034879;28;20231;-83
2022/05/30 12:35:20;;;;;;;0.20;0.20;;;20.60;99.90;;;;;;5038140;28;20185;-82
2022/05/30 12:37:58;;;;;;;0.40;0.40;;;20.90;99.90;;;;;;4976845;28;20723;-83
2022/05/30 12:40:26;;;;;;;0.13;0.13;;;20.40;99.90;;;;;;4965227;28;20863;-82
2022/05/30 12:43:07;;;;;;;0.73;0.50;;;19.50;99.90;;;;;;5027845;28;20203;-82
2022/05/30 12:45:51;;;;;;;0.27;0.27;;;18.50;99.90;;;;;;5061852;28;20235;-83
2022/05/30 12:48:20;;;;;;;0.30;0.30;;;17.80;99.90;;;;;;5062284;28;20269;-82
2022/05/30 12:50:52;;;;;;;0.30;0.30;;;17.90;99.90;;;;;;5061261;28;21254;-82
2022/05/30 12:53:23;;;;;;;0.23;0.23;;;18.50;99.90;;;;;;5056292;28;20263;-82
2022/05/30 12:55:51;;;;;;;0.23;0.23;;;19.00;99.90;;;;;;5070169;28;20190;-82
2022/05/30 12:58:42;;;;;;;0.37;0.23;;;18.50;99.90;;;;;;5042679;28;20211;-82
2022/05/30 13:01:20;;;;;;;0.10;0.10;;;18.80;99.90;;;;;;5059834;28;20564;-82
2022/05/30 13:04:04;;;;;;;0.37;0.30;;;18.50;99.90;;;;;;5042052;28;20189;-82
2022/05/30 13:06:31;;;;;;;0.20;0.20;;;18.10;99.90;;;;;;5043066;28;20220;-82
2022/05/30 13:09:19;;;;;;;0.50;0.50;;;18.60;99.90;;;;;;5058796;28;20213;-82
2022/05/30 13:11:55;;;;;;;0.20;0.20;;;19.10;99.90;;;;;;5045403;28;20610;-82
2022/05/30 13:14:36;;;;;;;0.20;0.20;;;19.70;99.90;;;;;;5058184;28;20181;-82
2022/05/30 13:17:22;;;;;;;0.33;0.33;;;20.20;99.90;;;;;;5059277;28;20215;-82
2022/05/30 13:19:58;;;;;;;0.20;0.20;;;20.60;99.90;;;;;;5059921;28;20204;-83
2022/05/30 13:22:29;;;;;;;0.20;0.20;;;20.90;99.90;;;;;;5056260;28;20234;-82
2022/05/30 13:24:55;;;;;;;0.63;0.63;;;20.10;99.90;;;;;;5062243;28;20276;-82
2022/05/30 13:27:21;;;;;;;1.73;0.20;;;18.60;99.90;;;;;;5060379;28;20339;-82
2022/05/30 13:29:47;;;;;;;0.10;0.10;;;18.50;99.90;;;;;;5059341;28;20206;-84
2022/05/30 13:32:16;;;;;;;0.20;0.20;;;19.30;99.90;;;;;;5042145;28;20259;-82